Time;durP1;ratioP1;P1;durP2;ratioP2;P2;SDS_P1;SDS_P2;PMS_P1;PMS_P2;Temp;Humidity;BMP_temperature;BMP_pressure;BME280_temperature;BME280_humidity;BME280_pressure;Samples;Min_cycle;Max_cycle;Signal;HPM_P1;HPM_P2
2022/10/18 00:02:10;;;;;;;10.43;4.87;;;13.90;99.90;;;;;;20976581;28;20429;-77
2022/10/18 00:12:11;;;;;;;13.67;4.70;;;13.80;99.90;;;;;;20999223;28;20035;-76
2022/10/18 00:22:12;;;;;;;22.37;4.93;;;13.80;99.90;;;;;;20975215;28;20059;-76
2022/10/18 00:32:13;;;;;;;12.87;5.03;;;13.50;99.90;;;;;;21000219;28;20478;-76
2022/10/18 00:42:19;;;;;;;15.40;5.00;;;13.50;99.90;;;;;;20990216;28;20379;-77
2022/10/18 00:52:34;;;;;;;15.65;5.68;;;13.50;99.90;;;;;;20971863;28;20040;-76
2022/10/18 01:02:40;;;;;;;12.90;5.18;;;13.60;99.90;;;;;;20989387;28;20081;-76
2022/10/18 01:13:02;;;;;;;14.05;4.82;;;13.60;99.90;;;;;;21000447;28;20127;-77
2022/10/18 01:23:14;;;;;;;9.30;5.10;;;13.70;99.90;;;;;;21004212;28;20033;-77
2022/10/18 01:33:19;;;;;;;9.93;4.83;;;13.80;99.90;;;;;;21003775;28;20029;-77
2022/10/18 01:43:23;;;;;;;16.98;5.10;;;13.70;99.90;;;;;;21043446;28;20286;-77
2022/10/18 01:53:33;;;;;;;12.45;5.30;;;13.50;99.90;;;;;;21017027;28;20119;-75
2022/10/18 02:03:40;;;;;;;13.10;5.80;;;13.50;99.90;;;;;;21024171;28;20501;-77
2022/10/18 02:13:50;;;;;;;11.30;5.18;;;13.50;99.90;;;;;;21051042;28;20386;-77
2022/10/18 02:23:52;;;;;;;10.45;5.82;;;13.50;99.90;;;;;;21060898;28;20108;-76
2022/10/18 02:33:57;;;;;;;10.93;5.43;;;13.30;99.90;;;;;;21035373;28;20036;-77
2022/10/18 02:43:58;;;;;;;7.68;4.50;;;13.20;99.90;;;;;;21035167;28;20031;-77
2022/10/18 02:53:58;;;;;;;9.27;5.10;;;13.30;99.90;;;;;;21040249;28;20028;-76
2022/10/18 03:04:00;;;;;;;14.10;5.97;;;13.30;99.90;;;;;;21058602;28;20032;-76
2022/10/18 03:14:00;;;;;;;;;;;13.10;99.90;;;;;;21014945;28;20042;-75
2022/10/18 03:24:02;;;;;;;18.30;5.37;;;13.00;99.90;;;;;;21046024;28;20362;-74
2022/10/18 03:34:02;;;;;;;8.37;4.50;;;13.00;99.90;;;;;;21060603;28;20289;-75
2022/10/18 03:44:03;;;;;;;10.37;5.30;;;12.90;99.90;;;;;;21055643;28;20690;-75
2022/10/18 03:54:04;;;;;;;14.27;4.97;;;12.90;99.90;;;;;;21053647;28;20043;-73
2022/10/18 04:04:05;;;;;;;12.47;4.47;;;13.00;99.90;;;;;;21064642;28;20024;-73
2022/10/18 04:14:06;;;;;;;8.97;4.63;;;12.80;99.90;;;;;;21057920;28;20024;-73
2022/10/18 04:24:07;;;;;;;12.87;5.47;;;12.80;99.90;;;;;;21073073;28;20031;-74
2022/10/18 04:34:09;;;;;;;10.60;4.50;;;12.70;99.90;;;;;;21062487;28;20108;-74
2022/10/18 04:44:11;;;;;;;18.45;4.93;;;12.70;99.90;;;;;;21021500;28;20188;-73
2022/10/18 04:54:11;;;;;;;8.18;4.90;;;12.60;99.90;;;;;;21038116;28;20121;-73
2022/10/18 05:04:12;;;;;;;12.17;5.43;;;12.30;99.90;;;;;;21057783;28;20072;-73
2022/10/18 05:14:13;;;;;;;10.73;4.70;;;12.00;99.90;;;;;;21047604;28;20028;-74
2022/10/18 05:24:14;;;;;;;11.27;5.23;;;12.10;99.90;;;;;;21045534;28;20107;-72
2022/10/18 05:34:15;;;;;;;18.60;5.00;;;11.60;99.90;;;;;;21041091;28;20040;-74
2022/10/18 05:44:16;;;;;;;14.85;4.95;;;11.60;99.90;;;;;;21002656;28;20036;-74
2022/10/18 05:54:17;;;;;;;9.83;5.07;;;11.50;99.90;;;;;;21001489;28;20403;-74
2022/10/18 06:04:18;;;;;;;13.33;4.70;;;11.60;99.90;;;;;;21001085;28;20064;-74
2022/10/18 06:14:18;;;;;;;22.03;8.33;;;11.70;99.90;;;;;;21000156;28;20491;-74
2022/10/18 06:24:20;;;;;;;17.93;9.07;;;11.90;99.90;;;;;;20982070;28;20112;-75
2022/10/18 06:34:21;;;;;;;16.23;8.80;;;12.10;99.90;;;;;;21031408;28;20081;-74
2022/10/18 06:44:22;;;;;;;11.40;6.40;;;12.50;99.90;;;;;;21081491;28;20469;-75
2022/10/18 06:54:22;;;;;;;10.20;6.00;;;12.80;99.90;;;;;;21080251;28;20516;-74
2022/10/18 07:04:26;;;;;;;9.87;5.63;;;12.80;99.90;;;;;;21078797;28;20077;-75
2022/10/18 07:14:27;;;;;;;19.52;10.90;;;13.10;99.90;;;;;;21081333;28;20040;-75
2022/10/18 07:24:28;;;;;;;14.33;7.07;;;13.10;99.90;;;;;;21080983;28;20103;-74
2022/10/18 07:34:28;;;;;;;18.13;7.90;;;13.40;99.90;;;;;;21071917;22;20055;-77
2022/10/18 07:44:29;;;;;;;14.83;8.30;;;13.90;99.90;;;;;;20981964;28;20036;-77
2022/10/18 07:54:30;;;;;;;17.57;6.53;;;14.70;99.90;;;;;;20991109;28;20116;-76
2022/10/18 08:04:31;;;;;;;8.27;5.30;;;15.80;99.90;;;;;;20940891;28;20490;-77
2022/10/18 08:14:32;;;;;;;9.03;5.17;;;16.10;99.90;;;;;;20904786;28;20551;-76
2022/10/18 08:24:32;;;;;;;12.67;5.10;;;17.00;99.90;;;;;;20907416;28;20483;-77
2022/10/18 08:34:34;;;;;;;8.63;4.83;;;17.60;99.90;;;;;;20906836;28;20082;-77
2022/10/18 08:44:43;;;;;;;13.48;4.90;;;18.30;99.90;;;;;;20905565;28;20406;-77
2022/10/18 08:55:02;;;;;;;13.65;5.30;;;19.20;99.90;;;;;;20906309;28;20040;-77
2022/10/18 09:05:06;;;;;;;8.75;4.53;;;18.70;99.90;;;;;;20905919;28;20037;-77
2022/10/18 09:15:30;;;;;;;7.78;4.63;;;19.70;99.90;;;;;;20904272;28;20029;-77
2022/10/18 09:25:45;;;;;;;8.02;4.40;;;21.00;99.90;;;;;;20927044;28;20032;-77
2022/10/18 09:35:58;;;;;;;11.07;4.38;;;22.00;99.90;;;;;;21000024;28;20044;-76
2022/10/18 09:45:59;;;;;;;7.03;3.70;;;23.00;99.90;;;;;;21001927;28;20298;-77
2022/10/18 09:56:29;;;;;;;;;;;22.90;99.90;;;;;;21003036;28;20043;-76
2022/10/18 10:06:33;;;;;;;14.63;4.25;;;22.10;99.90;;;;;;20996248;28;19919;-76
2022/10/18 10:17:02;;;;;;;9.65;3.55;;;22.30;99.90;;;;;;21001082;28;20052;-76
2022/10/18 10:27:31;;;;;;;7.13;3.72;;;23.50;99.90;;;;;;20929032;28;20086;-76
2022/10/18 10:37:35;;;;;;;12.18;3.63;;;23.80;99.90;;;;;;20916843;28;20091;-77
2022/10/18 10:47:36;;;;;;;10.45;4.93;;;24.10;99.90;;;;;;20915918;28;20433;-77
2022/10/18 10:57:37;;;;;;;;;;;23.90;99.90;;;;;;20916874;28;20061;-77
2022/10/18 11:07:45;;;;;;;8.18;3.60;;;23.70;99.90;;;;;;20915713;28;19909;-77
2022/10/18 11:17:58;;;;;;;4.25;2.20;;;24.90;99.90;;;;;;20937101;28;20120;-76
2022/10/18 11:28:37;;;;;;;8.70;2.60;;;24.20;99.90;;;;;;20831348;28;20037;-76
2022/10/18 11:38:52;;;;;;;9.85;2.10;;;23.90;99.90;;;;;;20855488;28;20503;-76
2022/10/18 11:49:12;;;;;;;9.20;2.05;;;23.50;99.90;;;;;;20911496;28;20083;-76
2022/10/18 11:59:27;;;;;;;4.75;1.80;;;23.60;99.90;;;;;;20932310;28;20502;-76
2022/10/18 12:09:42;;;;;;;4.75;2.03;;;23.90;99.90;;;;;;20910594;28;20067;-76
2022/10/18 12:19:46;;;;;;;11.10;1.98;;;24.50;99.90;;;;;;20909659;28;20135;-76
2022/10/18 12:29:56;;;;;;;10.45;2.28;;;24.90;99.90;;;;;;20909101;28;20029;-76
2022/10/18 12:40:14;;;;;;;9.75;1.95;;;25.70;99.90;;;;;;20908742;28;20033;-75
2022/10/18 12:50:56;;;;;;;12.10;2.75;;;24.60;99.90;;;;;;20909700;28;20029;-76
2022/10/18 13:01:00;;;;;;;;;;;25.20;99.90;;;;;;20860048;28;20116;-76
2022/10/18 13:11:08;;;;;;;8.40;1.80;;;25.50;99.90;;;;;;20924567;28;20374;-76
2022/10/18 13:21:27;;;;;;;5.70;1.77;;;25.70;99.90;;;;;;20923211;28;20044;-76
2022/10/18 13:31:48;;;;;;;10.95;1.98;;;25.80;99.90;;;;;;20920993;28;20376;-75
2022/10/18 13:41:49;;;;;;;8.20;2.40;;;24.40;99.90;;;;;;20999780;22;20055;-75
2022/10/18 13:51:49;;;;;;;;;;;24.30;99.90;;;;;;21038864;28;20028;-76
2022/10/18 14:02:09;;;;;;;5.57;1.60;;;24.10;99.90;;;;;;21046320;28;19993;-76
2022/10/18 14:12:27;;;;;;;9.65;1.73;;;24.10;99.90;;;;;;21062807;28;20374;-74
2022/10/18 14:22:37;;;;;;;9.98;2.92;;;23.70;99.90;;;;;;21033100;28;20043;-75
2022/10/18 14:32:49;;;;;;;7.93;2.33;;;23.60;99.90;;;;;;21017695;28;20038;-75
2022/10/18 14:42:50;;;;;;;5.60;2.05;;;23.70;99.90;;;;;;20995931;28;20103;-75
2022/10/18 14:52:50;;;;;;;;;;;23.90;99.90;;;;;;21053785;28;20047;-75
2022/10/18 15:02:51;;;;;;;6.93;2.17;;;23.70;99.90;;;;;;21012189;28;20006;-75
2022/10/18 15:12:52;;;;;;;;;;;24.30;99.90;;;;;;21001715;28;20078;-75
2022/10/18 15:23:14;;;;;;;11.07;2.05;;;24.50;99.90;;;;;;21012188;28;19998;-75
2022/10/18 15:33:23;;;;;;;6.07;2.23;;;24.10;99.90;;;;;;21046010;28;20035;-76
2022/10/18 15:43:27;;;;;;;7.80;2.05;;;23.90;99.90;;;;;;21031308;28;20390;-75
2022/10/18 15:53:38;;;;;;;9.02;2.28;;;22.90;99.90;;;;;;21038154;28;20609;-75
2022/10/18 16:03:39;;;;;;;3.47;2.10;;;22.10;99.90;;;;;;21019909;28;20110;-74
2022/10/18 16:13:40;;;;;;;15.75;2.22;;;21.60;99.90;;;;;;21075482;28;20063;-76
2022/10/18 16:23:40;;;;;;;10.57;2.43;;;20.70;99.90;;;;;;21052490;28;20039;-75
2022/10/18 16:33:41;;;;;;;5.97;2.20;;;19.80;99.90;;;;;;20991706;28;20051;-76
2022/10/18 16:43:44;;;;;;;6.67;2.57;;;19.10;99.90;;;;;;21041856;28;20032;-74
2022/10/18 16:53:45;;;;;;;8.60;2.60;;;19.00;99.90;;;;;;20983601;28;20433;-75
2022/10/18 17:03:46;;;;;;;12.18;3.33;;;19.00;99.90;;;;;;21008211;28;20034;-75
2022/10/18 17:13:47;;;;;;;;;;;18.30;99.90;;;;;;21004853;28;20236;-75
2022/10/18 17:23:48;;;;;;;14.38;3.03;;;17.90;99.90;;;;;;21055149;28;19989;-75
2022/10/18 17:33:49;;;;;;;8.17;2.47;;;17.20;99.90;;;;;;21051260;28;20090;-75
2022/10/18 17:43:50;;;;;;;8.07;2.97;;;16.70;99.90;;;;;;21003031;28;20490;-75
2022/10/18 17:53:51;;;;;;;15.67;2.47;;;16.70;99.90;;;;;;20985930;28;20029;-75
2022/10/18 18:04:00;;;;;;;7.73;2.90;;;16.60;99.90;;;;;;21005168;28;20112;-75
2022/10/18 18:14:01;;;;;;;10.43;2.33;;;16.10;99.90;;;;;;21000292;28;20064;-74
2022/10/18 18:24:02;;;;;;;16.63;3.50;;;16.10;99.90;;;;;;20999640;28;20046;-75
2022/10/18 18:34:03;;;;;;;7.65;2.85;;;16.10;99.90;;;;;;20998650;28;20506;-75
2022/10/18 18:44:05;;;;;;;5.40;2.83;;;16.30;99.90;;;;;;20998460;28;20032;-75
2022/10/18 18:54:07;;;;;;;8.40;3.08;;;15.50;99.90;;;;;;20997618;28;20028;-76
2022/10/18 19:04:09;;;;;;;10.07;3.25;;;15.80;99.90;;;;;;20996504;28;20075;-76
2022/10/18 19:14:12;;;;;;;14.63;2.95;;;15.30;99.90;;;;;;20995282;28;20024;-75
2022/10/18 19:24:14;;;;;;;13.63;3.33;;;15.30;99.90;;;;;;20981320;28;20045;-75
2022/10/18 19:34:15;;;;;;;;;;;14.70;99.90;;;;;;21000715;28;20036;-75
2022/10/18 19:44:17;;;;;;;9.25;3.40;;;15.00;99.90;;;;;;20993138;28;19990;-75
2022/10/18 19:54:18;;;;;;;14.85;3.40;;;14.80;99.90;;;;;;21024737;28;20032;-74
2022/10/18 20:04:19;;;;;;;15.63;4.50;;;14.50;99.90;;;;;;21027264;28;20636;-75
2022/10/18 20:14:20;;;;;;;10.80;2.70;;;14.80;99.90;;;;;;21030389;28;20048;-75
2022/10/18 20:24:21;;;;;;;18.67;2.90;;;14.70;99.90;;;;;;21017939;28;20035;-75
2022/10/18 20:34:24;;;;;;;12.10;2.90;;;14.10;99.90;;;;;;21016123;28;20367;-75
2022/10/18 20:44:25;;;;;;;15.50;2.75;;;14.30;99.90;;;;;;21047278;28;20119;-75
2022/10/18 20:54:26;;;;;;;10.13;3.20;;;14.70;99.90;;;;;;21029738;28;20063;-75
2022/10/18 21:04:27;;;;;;;11.13;3.03;;;15.00;99.90;;;;;;21032804;28;20341;-75
2022/10/18 21:14:28;;;;;;;12.43;2.40;;;14.70;99.90;;;;;;21028951;28;20020;-75
2022/10/18 21:24:29;;;;;;;20.87;3.17;;;14.10;99.90;;;;;;21015904;28;20039;-75
2022/10/18 21:34:30;;;;;;;13.60;2.67;;;13.90;99.90;;;;;;21023902;28;20024;-75
2022/10/18 21:44:31;;;;;;;5.83;2.60;;;13.70;99.90;;;;;;21042476;28;20024;-75
2022/10/18 21:54:31;;;;;;;9.47;3.03;;;14.30;99.90;;;;;;21041803;28;20035;-75
2022/10/18 22:04:34;;;;;;;4.90;2.53;;;14.40;99.90;;;;;;21046338;28;20028;-75
2022/10/18 22:14:35;;;;;;;7.40;2.60;;;14.40;99.90;;;;;;21056536;28;20089;-75
2022/10/18 22:24:36;;;;;;;4.80;2.70;;;14.30;99.90;;;;;;20999053;28;20506;-74
2022/10/18 22:34:36;;;;;;;10.50;4.00;;;14.40;99.90;;;;;;20979963;28;20033;-75
2022/10/18 22:44:37;;;;;;;7.30;2.90;;;14.40;99.90;;;;;;20997499;28;20028;-74
2022/10/18 22:54:38;;;;;;;16.73;2.97;;;14.20;99.90;;;;;;20997561;28;20024;-74
2022/10/18 23:04:39;;;;;;;9.73;2.53;;;14.20;99.90;;;;;;20999547;28;20032;-74
2022/10/18 23:14:39;;;;;;;10.13;3.20;;;14.30;99.90;;;;;;20994670;28;20114;-74
2022/10/18 23:24:40;;;;;;;9.23;3.03;;;14.20;99.90;;;;;;20999015;28;20039;-74
2022/10/18 23:34:41;;;;;;;6.83;2.50;;;14.20;99.90;;;;;;20993261;28;20024;-74
2022/10/18 23:44:42;;;;;;;5.93;2.77;;;14.10;99.90;;;;;;20992527;28;20028;-75
2022/10/18 23:54:42;;;;;;;12.47;3.23;;;14.10;99.90;;;;;;20991118;28;20077;-75
